createdAt,value
2018-12-07T00:00:31.853Z,88.82
2018-12-07T00:01:08.751Z,88.90
2018-12-07T00:01:46.528Z,89.78
2018-12-07T00:02:23.452Z,88.42
2018-12-07T00:03:01.215Z,88.81
2018-12-07T00:03:38.126Z,89.18
2018-12-07T00:04:14.913Z,88.49
2018-12-07T00:04:51.885Z,89.48
2018-12-07T00:05:28.645Z,88.29
2018-12-07T00:06:06.242Z,89.47
2018-12-07T00:06:45.368Z,89.38
2018-12-07T00:07:22.247Z,88.49
2018-12-07T00:08:02.117Z,88.14
2018-12-07T00:08:38.925Z,88.96
2018-12-07T00:09:15.736Z,88.16
2018-12-07T00:09:52.526Z,88.44
2018-12-07T00:10:29.507Z,87.61
2018-12-07T00:11:06.553Z,88.90
2018-12-07T00:11:44.237Z,89.07
2018-12-07T00:12:21.517Z,88.34
2018-12-07T00:12:58.470Z,89.10
2018-12-07T00:13:35.243Z,88.06
2018-12-07T00:14:13.274Z,87.97
2018-12-07T00:14:50.457Z,87.58
2018-12-07T00:15:27.302Z,87.76
2018-12-07T00:16:07.005Z,88.91
2018-12-07T00:16:45.989Z,88.23
2018-12-07T00:17:24.475Z,87.82
2018-12-07T00:18:01.267Z,88.39
2018-12-07T00:18:38.544Z,88.42
2018-12-07T00:19:15.299Z,87.47
2018-12-07T00:19:52.095Z,86.97
2018-12-07T00:20:29.477Z,87.71
2018-12-07T00:21:06.304Z,87.98
2018-12-07T00:21:43.279Z,88.59
2018-12-07T00:22:20.087Z,87.73
2018-12-07T00:22:56.994Z,88.08
2018-12-07T00:23:33.849Z,87.09
2018-12-07T00:24:10.683Z,88.34
2018-12-07T00:24:47.540Z,87.36
2018-12-07T00:25:24.887Z,87.41
2018-12-07T00:26:02.841Z,87.21
2018-12-07T00:26:39.730Z,87.47
2018-12-07T00:27:16.616Z,88.09
2018-12-07T00:27:53.581Z,87.07
2018-12-07T00:28:30.377Z,88.09
2018-12-07T00:29:07.349Z,87.50
2018-12-07T00:29:44.313Z,86.91
2018-12-07T00:30:22.073Z,87.14
2018-12-07T00:30:58.980Z,86.44
2018-12-07T00:31:35.891Z,86.60
2018-12-07T00:32:12.697Z,87.24
2018-12-07T00:32:49.550Z,87.83
2018-12-07T00:33:26.465Z,87.24
2018-12-07T00:34:03.313Z,87.59
2018-12-07T00:34:40.173Z,87.22
2018-12-07T00:35:17.066Z,87.01
2018-12-07T00:35:53.929Z,86.27
2018-12-07T00:36:30.819Z,87.15
2018-12-07T00:37:07.803Z,86.37
2018-12-07T00:37:44.632Z,85.89
2018-12-07T00:38:21.410Z,86.10
2018-12-07T00:38:58.161Z,86.36
2018-12-07T00:39:35.241Z,86.74
2018-12-07T00:40:12.209Z,86.62
2018-12-07T00:40:49.124Z,85.51
2018-12-07T00:41:25.906Z,85.87
2018-12-07T00:42:02.793Z,85.65
2018-12-07T00:42:39.666Z,85.79
2018-12-07T00:43:16.454Z,85.52
2018-12-07T00:43:53.385Z,85.21
2018-12-07T00:44:31.218Z,84.16
2018-12-07T00:45:08.456Z,84.19
2018-12-07T00:45:45.300Z,84.71
2018-12-07T00:46:22.197Z,84.81
2018-12-07T00:46:59.324Z,84.06
2018-12-07T00:47:36.197Z,83.93
2018-12-07T00:48:14.787Z,84.96
2018-12-07T00:48:51.607Z,84.51
2018-12-07T00:49:28.483Z,83.67
2018-12-07T00:50:05.399Z,84.09
2018-12-07T00:50:42.213Z,84.29
2018-12-07T00:51:21.261Z,83.68
2018-12-07T00:51:58.127Z,84.87
2018-12-07T00:52:35.004Z,84.73
2018-12-07T00:53:11.766Z,83.90
2018-12-07T00:53:48.662Z,83.89
2018-12-07T00:54:25.585Z,83.88
2018-12-07T00:55:02.523Z,83.86
2018-12-07T00:55:44.327Z,84.71
2018-12-07T00:56:21.093Z,84.48
2018-12-07T00:56:57.983Z,85.01
2018-12-07T00:57:34.859Z,83.72
2018-12-07T00:58:11.714Z,84.85
2018-12-07T00:59:02.636Z,84.18
2018-12-07T00:59:39.573Z,84.15
2018-12-07T01:00:16.452Z,83.83
2018-12-07T01:00:53.349Z,85.00
2018-12-07T01:01:30.330Z,84.02
2018-12-07T01:02:07.242Z,84.34
2018-12-07T01:02:44.097Z,84.93
2018-12-07T01:03:20.994Z,84.91
2018-12-07T01:03:57.839Z,84.35
2018-12-07T01:04:35.783Z,84.24
2018-12-07T01:05:12.558Z,84.37
2018-12-07T01:05:50.079Z,83.54
2018-12-07T01:06:26.933Z,83.65
2018-12-07T01:07:03.881Z,83.89
2018-12-07T01:07:40.834Z,82.97
2018-12-07T01:08:17.715Z,83.19
2018-12-07T01:08:54.520Z,83.32
2018-12-07T01:09:31.473Z,83.87
2018-12-07T01:10:08.724Z,82.65
2018-12-07T01:10:45.540Z,83.38
2018-12-07T01:11:22.567Z,83.55
2018-12-07T01:11:59.429Z,82.75
2018-12-07T01:12:36.233Z,83.16
2018-12-07T01:13:13.080Z,81.85
2018-12-07T01:13:49.891Z,83.25
2018-12-07T01:14:26.740Z,82.78
2018-12-07T01:15:03.766Z,82.12
2018-12-07T01:15:40.626Z,82.12
2018-12-07T01:16:17.463Z,82.51
2018-12-07T01:16:55.480Z,81.90
2018-12-07T01:17:32.411Z,82.09
2018-12-07T01:18:09.325Z,82.02
2018-12-07T01:18:46.256Z,82.01
2018-12-07T01:19:23.155Z,80.79
2018-12-07T01:20:00.140Z,81.08
2018-12-07T01:20:37.123Z,80.69
2018-12-07T01:21:14.052Z,81.32
2018-12-07T01:21:50.895Z,80.75
2018-12-07T01:22:28.343Z,80.58
2018-12-07T01:23:05.338Z,80.79
2018-12-07T01:23:42.208Z,79.85
2018-12-07T01:24:19.166Z,80.99
2018-12-07T01:24:56.057Z,80.77
2018-12-07T01:25:32.996Z,80.25
2018-12-07T01:26:09.911Z,80.62
2018-12-07T01:26:46.843Z,80.16
2018-12-07T01:27:23.859Z,79.52
2018-12-07T01:28:00.678Z,80.17
2018-12-07T01:28:37.601Z,79.59
2018-12-07T01:29:14.458Z,79.83
2018-12-07T01:29:51.311Z,79.92
2018-12-07T01:30:28.211Z,79.11
2018-12-07T01:31:05.153Z,78.38
2018-12-07T01:31:42.038Z,78.40
2018-12-07T01:32:18.831Z,77.99
2018-12-07T01:32:55.576Z,78.02
2018-12-07T01:33:32.356Z,77.66
2018-12-07T01:34:09.288Z,77.28
2018-12-07T01:34:46.206Z,77.71
2018-12-07T01:35:22.973Z,77.38
2018-12-07T01:35:59.728Z,77.43
2018-12-07T01:36:36.789Z,77.43
2018-12-07T01:37:13.606Z,77.93
2018-12-07T01:37:50.442Z,77.36
2018-12-07T01:38:27.303Z,77.54
2018-12-07T01:39:04.957Z,77.45
2018-12-07T01:39:41.923Z,77.91
2018-12-07T01:40:19.920Z,77.76
2018-12-07T01:40:56.918Z,77.64
2018-12-07T01:41:33.703Z,77.28
2018-12-07T01:42:10.499Z,77.33
2018-12-07T01:42:47.378Z,76.73
2018-12-07T01:43:24.249Z,76.74
2018-12-07T01:44:01.139Z,76.43
2018-12-07T01:44:38.021Z,75.95
2018-12-07T01:45:14.908Z,75.47
2018-12-07T01:45:51.887Z,77.06
2018-12-07T01:46:28.620Z,76.29
2018-12-07T01:47:05.554Z,75.59
2018-12-07T01:47:47.440Z,75.39
2018-12-07T01:48:24.472Z,74.84
2018-12-07T01:49:01.386Z,75.44
2018-12-07T01:49:38.321Z,75.12
2018-12-07T01:50:15.350Z,75.62
2018-12-07T01:50:52.140Z,75.42
2018-12-07T01:51:28.957Z,74.83
2018-12-07T01:52:05.736Z,74.85
2018-12-07T01:52:42.630Z,75.21
2018-12-07T01:53:19.538Z,75.47
2018-12-07T01:53:56.279Z,75.30
2018-12-07T01:54:33.232Z,75.67
2018-12-07T01:55:10.111Z,76.07
2018-12-07T01:55:47.075Z,75.91
2018-12-07T01:56:24.843Z,75.84
2018-12-07T01:57:01.770Z,75.40
2018-12-07T01:57:38.617Z,75.42
2018-12-07T01:58:15.473Z,75.96
2018-12-07T01:58:52.338Z,74.95
2018-12-07T02:00:35.120Z,74.74
2018-12-07T02:01:12.032Z,74.31
2018-12-07T02:01:48.964Z,74.63
2018-12-07T02:02:26.446Z,74.57
2018-12-07T02:03:04.174Z,74.33
2018-12-07T02:03:40.974Z,75.01
2018-12-07T02:04:17.848Z,74.16
2018-12-07T02:04:54.672Z,74.24
2018-12-07T02:05:31.433Z,74.05
2018-12-07T02:06:08.336Z,74.01
2018-12-07T02:06:45.225Z,73.73
2018-12-07T02:07:31.294Z,73.71
2018-12-07T02:08:08.256Z,74.52
2018-12-07T02:08:46.040Z,75.10
2018-12-07T02:09:23.869Z,73.71
2018-12-07T02:10:00.844Z,73.51
2018-12-07T02:10:37.723Z,73.07
2018-12-07T02:11:14.713Z,72.78
2018-12-07T02:11:51.602Z,72.92
2018-12-07T02:12:29.455Z,73.08
2018-12-07T02:13:06.167Z,72.62
2018-12-07T02:13:43.107Z,72.76
2018-12-07T02:14:19.954Z,72.71
2018-12-07T02:14:56.844Z,72.93
2018-12-07T02:15:35.149Z,73.27
2018-12-07T02:16:12.078Z,73.06
2018-12-07T02:16:49.013Z,73.14
2018-12-07T02:17:25.933Z,72.88
2018-12-07T02:18:05.927Z,72.93
2018-12-07T02:18:42.733Z,72.86
2018-12-07T02:19:19.743Z,72.58
2018-12-07T02:19:56.581Z,72.88
2018-12-07T02:20:33.492Z,72.64
2018-12-07T02:21:10.497Z,72.57
2018-12-07T02:21:47.277Z,72.30
2018-12-07T02:22:25.041Z,72.71
2018-12-07T02:23:01.884Z,72.77
2018-12-07T02:23:38.819Z,72.86
2018-12-07T02:24:15.676Z,72.12
2018-12-07T02:24:55.456Z,72.05
2018-12-07T02:25:38.373Z,71.61
2018-12-07T02:26:15.178Z,71.38
2018-12-07T02:26:52.003Z,71.72
2018-12-07T02:27:31.075Z,71.56
2018-12-07T02:28:08.068Z,71.96
2018-12-07T02:28:44.921Z,71.89
2018-12-07T02:29:21.920Z,71.75
2018-12-07T02:29:59.611Z,71.46
2018-12-07T02:30:36.362Z,71.44
2018-12-07T02:31:13.320Z,71.56
2018-12-07T02:31:50.132Z,71.53
2018-12-07T02:32:27.255Z,71.71
2018-12-07T02:33:04.155Z,71.49
2018-12-07T02:33:40.949Z,71.28
2018-12-07T02:34:18.958Z,71.58
2018-12-07T02:34:55.837Z,71.56
2018-12-07T02:35:32.880Z,71.28
2018-12-07T02:36:09.675Z,71.29
2018-12-07T02:36:47.634Z,71.18
2018-12-07T02:37:24.696Z,70.96
2018-12-07T02:38:01.530Z,71.04
2018-12-07T02:38:39.521Z,71.14
2018-12-07T02:39:17.305Z,70.79
2018-12-07T02:39:54.089Z,70.60
2018-12-07T02:40:31.037Z,70.39
2018-12-07T02:41:08.721Z,70.46
2018-12-07T02:41:45.449Z,69.99
2018-12-07T02:42:22.333Z,70.12
2018-12-07T02:42:59.164Z,70.34
2018-12-07T02:43:37.093Z,69.77
2018-12-07T02:44:13.902Z,70.13
2018-12-07T02:44:50.643Z,69.93
2018-12-07T02:45:27.541Z,70.19
2018-12-07T02:46:04.406Z,70.11
2018-12-07T02:46:41.457Z,69.96
2018-12-07T02:47:18.308Z,69.79
2018-12-07T02:47:55.179Z,69.76
2018-12-07T02:48:31.941Z,69.59
2018-12-07T02:49:08.844Z,69.50
2018-12-07T02:49:45.719Z,69.29
2018-12-07T02:50:22.602Z,69.78
2018-12-07T02:50:59.532Z,69.57
2018-12-07T02:51:36.358Z,69.38
2018-12-07T02:52:14.158Z,68.94
2018-12-07T02:52:51.108Z,69.03
2018-12-07T02:53:28.062Z,69.27
2018-12-07T02:54:05.810Z,69.46
2018-12-07T02:54:42.699Z,69.48
2018-12-07T02:55:19.568Z,69.29
2018-12-07T02:55:56.468Z,69.15
2018-12-07T02:56:35.189Z,68.82
2018-12-07T02:57:12.024Z,68.66
2018-12-07T02:57:48.923Z,68.69
2018-12-07T02:58:25.821Z,68.80
2018-12-07T02:59:02.724Z,68.91
2018-12-07T02:59:45.770Z,69.15
2018-12-07T03:00:22.696Z,68.78
2018-12-07T03:00:59.710Z,68.75
2018-12-07T03:01:36.526Z,69.08
2018-12-07T03:02:15.291Z,68.50
2018-12-07T03:02:52.086Z,68.37
2018-12-07T03:03:29.024Z,68.21
2018-12-07T03:04:07.056Z,68.27
2018-12-07T03:04:43.888Z,68.32
2018-12-07T03:05:20.979Z,68.24
2018-12-07T03:05:57.841Z,68.03
2018-12-07T03:06:34.761Z,67.93
2018-12-07T03:07:11.730Z,68.28
2018-12-07T03:07:48.651Z,67.83
2018-12-07T03:08:26.485Z,68.21
2018-12-07T03:09:03.425Z,68.42
2018-12-07T03:09:42.629Z,68.10
2018-12-07T03:10:19.562Z,67.91
2018-12-07T03:10:56.324Z,67.76
2018-12-07T03:11:33.267Z,67.89
2018-12-07T03:12:10.159Z,67.59
2018-12-07T03:12:47.063Z,67.64
2018-12-07T03:13:23.945Z,67.96
2018-12-07T03:14:01.124Z,67.70
2018-12-07T03:14:38.074Z,67.58
2018-12-07T03:15:15.396Z,67.34
2018-12-07T03:15:52.300Z,67.29
2018-12-07T03:16:29.223Z,67.20
2018-12-07T03:17:06.569Z,67.29
2018-12-07T03:17:44.625Z,66.94
2018-12-07T03:18:32.191Z,66.64
2018-12-07T03:19:08.998Z,66.73
2018-12-07T03:19:45.913Z,66.42
2018-12-07T03:20:22.902Z,65.96
2018-12-07T03:20:59.967Z,65.62
2018-12-07T03:21:36.854Z,65.62
2018-12-07T03:22:13.794Z,65.46
2018-12-07T03:22:50.717Z,65.87
2018-12-07T03:23:27.698Z,65.83
2018-12-07T03:24:04.501Z,65.88
2018-12-07T03:24:41.406Z,65.62
2018-12-07T03:25:18.318Z,65.04
2018-12-07T03:25:55.976Z,64.95
2018-12-07T03:26:32.859Z,65.08
2018-12-07T03:27:09.889Z,64.98
2018-12-07T03:27:46.817Z,65.18
2018-12-07T03:28:24.569Z,65.32
2018-12-07T03:29:01.508Z,65.39
2018-12-07T03:29:38.413Z,64.81
2018-12-07T03:30:16.125Z,64.64
2018-12-07T03:30:54.749Z,64.43
2018-12-07T03:31:31.761Z,64.38
2018-12-07T03:32:09.872Z,63.55
2018-12-07T03:32:46.710Z,62.99
2018-12-07T03:33:23.766Z,63.03
2018-12-07T03:34:02.283Z,63.48
2018-12-07T03:34:39.410Z,63.83
2018-12-07T03:35:16.216Z,63.89
2018-12-07T03:35:53.092Z,64.03
2018-12-07T03:36:29.945Z,63.55
2018-12-07T03:37:06.836Z,62.95
2018-12-07T03:37:43.614Z,62.81
2018-12-07T03:38:20.432Z,63.08
2018-12-07T03:39:00.083Z,63.39
2018-12-07T03:39:36.921Z,63.22
2018-12-07T03:40:13.759Z,63.12
2018-12-07T03:40:50.473Z,63.31
2018-12-07T03:41:27.395Z,63.15
2018-12-07T03:42:04.374Z,63.03
2018-12-07T03:42:41.189Z,62.55
2018-12-07T03:43:18.132Z,62.19
2018-12-07T03:43:55.181Z,62.20
2018-12-07T03:44:32.102Z,62.62
2018-12-07T03:45:09.852Z,62.49
2018-12-07T03:45:46.798Z,61.39
2018-12-07T03:46:23.632Z,61.33
2018-12-07T03:47:00.630Z,61.80
2018-12-07T03:47:37.589Z,61.47
2018-12-07T03:48:14.397Z,61.08
2018-12-07T03:48:51.281Z,60.32
2018-12-07T03:49:28.991Z,60.69
2018-12-07T03:50:05.972Z,60.70
2018-12-07T03:50:42.779Z,60.94
2018-12-07T03:51:19.654Z,60.16
2018-12-07T03:51:57.406Z,60.64
2018-12-07T03:52:34.444Z,60.89
2018-12-07T03:53:11.412Z,60.98
2018-12-07T03:53:48.357Z,60.77
2018-12-07T03:54:25.178Z,60.77
2018-12-07T03:55:02.083Z,61.27
2018-12-07T03:55:38.962Z,61.35
2018-12-07T03:56:15.779Z,60.57
2018-12-07T03:56:53.629Z,60.11
2018-12-07T03:57:30.703Z,60.31
2018-12-07T03:58:07.502Z,60.45
2018-12-07T03:58:44.452Z,60.49
2018-12-07T03:59:21.243Z,60.78
2018-12-07T03:59:58.140Z,61.03
2018-12-07T04:00:34.888Z,60.50
2018-12-07T04:01:12.728Z,60.42
2018-12-07T04:01:49.796Z,60.54
2018-12-07T04:02:26.719Z,60.32
2018-12-07T04:03:03.755Z,60.41
2018-12-07T04:03:41.888Z,59.90
2018-12-07T04:04:19.345Z,60.15
2018-12-07T04:04:56.148Z,60.13
2018-12-07T04:05:33.157Z,60.81
2018-12-07T04:06:10.480Z,60.33
2018-12-07T04:06:47.334Z,60.05
2018-12-07T04:07:24.301Z,60.32
2018-12-07T04:08:03.896Z,60.69
2018-12-07T04:08:40.977Z,60.49
2018-12-07T04:09:18.804Z,60.18
2018-12-07T04:09:55.838Z,59.77
2018-12-07T04:10:32.896Z,60.04
2018-12-07T04:11:09.984Z,59.97
2018-12-07T04:11:46.884Z,59.93
2018-12-07T04:12:23.922Z,59.54
2018-12-07T04:13:00.824Z,59.73
2018-12-07T04:13:38.024Z,59.56
2018-12-07T04:14:14.806Z,59.94
2018-12-07T04:14:51.612Z,59.80
2018-12-07T04:15:28.612Z,59.72
2018-12-07T04:16:05.536Z,59.78
2018-12-07T04:16:42.657Z,59.61
2018-12-07T04:17:19.550Z,60.03
2018-12-07T04:17:56.358Z,60.43
2018-12-07T04:18:33.529Z,59.97
2018-12-07T04:19:10.406Z,60.38
2018-12-07T04:19:47.819Z,59.77
2018-12-07T04:20:24.773Z,60.21
2018-12-07T04:21:01.686Z,59.55
2018-12-07T04:21:38.542Z,59.87
2018-12-07T04:22:15.400Z,59.36
2018-12-07T04:22:52.360Z,59.35
2018-12-07T04:23:30.343Z,58.95
2018-12-07T04:24:07.265Z,58.44
2018-12-07T04:24:44.132Z,59.18
2018-12-07T04:25:20.974Z,59.47
2018-12-07T04:25:57.883Z,58.39
2018-12-07T04:26:35.865Z,58.47
2018-12-07T04:27:13.203Z,58.43
2018-12-07T04:27:50.529Z,58.21
2018-12-07T04:28:27.609Z,58.89
2018-12-07T04:29:04.625Z,57.38
2018-12-07T04:29:41.476Z,58.11
2018-12-07T04:30:28.706Z,58.33
2018-12-07T04:31:06.136Z,58.34
2018-12-07T04:31:42.994Z,57.32
2018-12-07T04:32:19.837Z,57.30
2018-12-07T04:32:56.700Z,57.19
2018-12-07T04:33:33.982Z,58.24
2018-12-07T04:34:10.895Z,57.85
2018-12-07T04:34:47.309Z,57.56
2018-12-07T04:35:24.253Z,57.79
2018-12-07T04:36:07.338Z,57.34
2018-12-07T04:36:40.154Z,58.13
2018-12-07T04:37:17.035Z,58.68
2018-12-07T04:37:54.001Z,59.04
2018-12-07T04:38:30.754Z,58.56
2018-12-07T04:39:09.184Z,57.62
2018-12-07T04:39:46.110Z,57.38
2018-12-07T04:40:23.190Z,57.30
2018-12-07T04:41:00.085Z,57.88
2018-12-07T04:41:37.087Z,57.82
2018-12-07T04:42:13.899Z,58.10
2018-12-07T04:42:51.142Z,57.34
2018-12-07T04:43:27.991Z,58.19
2018-12-07T04:44:04.924Z,57.90
2018-12-07T04:44:41.861Z,57.94
2018-12-07T04:45:18.755Z,57.70
2018-12-07T04:45:56.514Z,58.14
2018-12-07T04:46:33.309Z,57.64
2018-12-07T04:47:10.156Z,57.32
2018-12-07T04:47:47.057Z,56.39
2018-12-07T04:48:23.943Z,56.71
2018-12-07T04:49:00.746Z,56.88
2018-12-07T04:49:38.834Z,56.53
2018-12-07T04:50:15.791Z,56.44
2018-12-07T04:50:53.179Z,57.36
2018-12-07T04:51:30.147Z,57.10
2018-12-07T04:52:07.505Z,56.77
2018-12-07T04:52:44.376Z,56.47
2018-12-07T04:53:21.478Z,57.04
2018-12-07T04:53:58.446Z,57.42
2018-12-07T04:54:35.515Z,57.49
2018-12-07T04:55:12.500Z,57.00
2018-12-07T04:55:49.446Z,57.14
2018-12-07T04:56:26.306Z,56.68
2018-12-07T04:57:03.706Z,57.95
2018-12-07T04:57:41.134Z,58.21
2018-12-07T04:58:18.277Z,57.81
2018-12-07T04:58:55.261Z,58.33
2018-12-07T04:59:32.328Z,58.50
2018-12-07T05:00:10.173Z,57.55
2018-12-07T05:00:47.390Z,56.92
2018-12-07T05:01:24.203Z,57.50
2018-12-07T05:02:02.555Z,57.48
2018-12-07T05:02:39.468Z,57.65
2018-12-07T05:03:17.568Z,58.56
2018-12-07T05:03:54.481Z,57.94
2018-12-07T05:04:31.467Z,57.68
2018-12-07T05:05:08.828Z,57.94
2018-12-07T05:05:46.779Z,57.63
2018-12-07T05:06:24.359Z,57.93
2018-12-07T05:07:02.062Z,57.76
2018-12-07T05:07:39.458Z,57.79
2018-12-07T05:08:17.046Z,58.06
2018-12-07T05:08:53.910Z,57.31
2018-12-07T05:09:30.878Z,57.65
2018-12-07T05:10:08.455Z,58.38
2018-12-07T05:10:45.405Z,58.74
2018-12-07T05:11:22.611Z,57.97
2018-12-07T05:11:59.616Z,57.65
2018-12-07T05:12:36.636Z,57.56
2018-12-07T05:13:13.540Z,57.00
2018-12-07T05:13:50.298Z,57.37
2018-12-07T05:14:27.145Z,57.08
2018-12-07T05:15:04.142Z,57.12
2018-12-07T05:15:41.124Z,56.72
2018-12-07T05:16:18.069Z,57.01
2018-12-07T05:16:55.057Z,56.66
2018-12-07T05:17:32.569Z,57.06
2018-12-07T05:18:10.614Z,57.32
2018-12-07T05:18:47.533Z,57.51
2018-12-07T05:19:24.685Z,56.72
2018-12-07T05:20:01.741Z,57.17
2018-12-07T05:20:38.604Z,57.70
2018-12-07T05:21:16.042Z,57.84
2018-12-07T05:21:53.318Z,57.51
2018-12-07T05:22:30.976Z,58.75
2018-12-07T05:23:08.369Z,58.38
2018-12-07T05:23:45.874Z,58.41
2018-12-07T05:24:23.345Z,57.43
2018-12-07T05:25:01.304Z,57.32
2018-12-07T05:25:39.247Z,57.25
2018-12-07T05:26:16.201Z,57.61
2018-12-07T05:26:53.352Z,58.13
2018-12-07T05:27:30.106Z,58.03
2018-12-07T05:28:07.348Z,57.80
2018-12-07T05:28:44.343Z,57.28
2018-12-07T05:29:21.712Z,56.01
2018-12-07T05:29:58.557Z,56.24
2018-12-07T05:30:35.589Z,55.36
2018-12-07T05:31:12.843Z,54.99
2018-12-07T05:31:49.745Z,55.07
2018-12-07T05:32:26.553Z,55.88
2018-12-07T05:33:03.376Z,55.38
2018-12-07T05:33:40.212Z,56.27
2018-12-07T05:34:17.079Z,55.74
2018-12-07T05:34:53.937Z,56.54
2018-12-07T05:35:30.964Z,57.23
2018-12-07T05:36:07.980Z,56.99
2018-12-07T05:36:44.886Z,57.12
2018-12-07T05:37:21.752Z,56.45
2018-12-07T05:37:58.620Z,56.52
2018-12-07T05:38:35.589Z,56.59
2018-12-07T05:39:12.426Z,57.05
2018-12-07T05:39:49.341Z,57.03
2018-12-07T05:40:26.234Z,56.60
2018-12-07T05:41:03.242Z,57.63
2018-12-07T05:41:40.072Z,57.22
2018-12-07T05:42:17.044Z,57.03
2018-12-07T05:42:53.934Z,56.84
2018-12-07T05:43:30.847Z,56.52
2018-12-07T05:44:07.744Z,56.06
2018-12-07T05:44:44.655Z,56.82
2018-12-07T05:45:22.144Z,56.48
2018-12-07T05:45:58.959Z,55.50
2018-12-07T05:46:35.925Z,55.68
2018-12-07T05:47:13.777Z,55.82
2018-12-07T05:47:50.632Z,55.47
2018-12-07T05:48:27.483Z,56.05
2018-12-07T05:49:04.309Z,56.46
2018-12-07T05:49:41.206Z,56.48
2018-12-07T05:50:18.048Z,55.89
2018-12-07T05:50:54.956Z,56.62
2018-12-07T05:51:31.695Z,55.33
2018-12-07T05:52:11.506Z,55.52
2018-12-07T05:52:48.444Z,55.62
2018-12-07T05:53:25.476Z,55.84
2018-12-07T05:54:02.421Z,56.49
2018-12-07T05:54:40.221Z,56.71
2018-12-07T05:55:17.145Z,55.49
2018-12-07T05:55:53.929Z,54.05
2018-12-07T05:56:30.685Z,54.52
2018-12-07T05:57:07.477Z,55.07
2018-12-07T05:57:44.422Z,53.95
2018-12-07T05:58:21.241Z,53.37
2018-12-07T05:58:58.108Z,53.56
2018-12-07T05:59:34.830Z,54.41
2018-12-07T06:00:12.936Z,55.00
2018-12-07T06:00:49.933Z,55.23
2018-12-07T06:01:26.690Z,54.52
2018-12-07T06:02:03.828Z,55.26
2018-12-07T06:02:41.292Z,55.99
2018-12-07T06:03:18.280Z,55.94
2018-12-07T06:03:55.218Z,54.95
2018-12-07T06:04:32.173Z,55.36
2018-12-07T06:05:10.006Z,55.31
2018-12-07T06:05:46.859Z,55.51
2018-12-07T06:06:23.620Z,55.73
2018-12-07T06:07:00.521Z,55.25
2018-12-07T06:07:37.291Z,55.01
2018-12-07T06:08:14.088Z,55.53
2018-12-07T06:08:50.849Z,55.47
2018-12-07T06:09:27.603Z,55.20
2018-12-07T06:10:04.439Z,55.82
2018-12-07T06:10:41.471Z,55.42
2018-12-07T06:11:23.775Z,55.64
2018-12-07T06:12:00.687Z,56.10
2018-12-07T06:12:37.535Z,55.93
2018-12-07T06:13:14.419Z,56.00
2018-12-07T06:13:51.187Z,56.06
2018-12-07T06:14:28.911Z,56.77
2018-12-07T06:15:06.739Z,56.12
2018-12-07T06:15:44.616Z,56.76
2018-12-07T06:16:21.466Z,57.24
2018-12-07T06:16:59.340Z,57.03
2018-12-07T06:17:37.056Z,56.95
2018-12-07T06:18:13.992Z,56.72
2018-12-07T06:18:50.905Z,56.69
2018-12-07T06:19:27.672Z,57.68
2018-12-07T06:20:04.806Z,58.37
2018-12-07T06:21:51.014Z,57.61
2018-12-07T06:22:27.931Z,57.84
2018-12-07T06:23:04.820Z,57.35
2018-12-07T06:23:41.627Z,57.20
2018-12-07T06:24:19.463Z,57.58
2018-12-07T06:24:56.264Z,57.33
2018-12-07T06:25:33.129Z,57.32
2018-12-07T06:26:10.011Z,57.63
2018-12-07T06:26:46.949Z,58.38
2018-12-07T06:27:23.902Z,59.36
2018-12-07T06:28:00.713Z,58.33
2018-12-07T06:28:37.583Z,58.51
2018-12-07T06:29:14.395Z,58.51
2018-12-07T06:29:51.267Z,59.50
2018-12-07T06:30:28.945Z,59.63
2018-12-07T06:31:05.953Z,59.20
2018-12-07T06:31:42.806Z,58.85
2018-12-07T06:32:19.664Z,58.48
2018-12-07T06:33:00.279Z,58.56
2018-12-07T06:33:37.035Z,59.20
2018-12-07T06:34:13.827Z,59.30
2018-12-07T06:34:50.598Z,58.08
2018-12-07T06:36:35.081Z,58.50
2018-12-07T06:37:11.995Z,59.23
2018-12-07T06:37:48.767Z,59.27
2018-12-07T06:38:25.924Z,59.15
2018-12-07T06:39:02.744Z,58.75
2018-12-07T06:39:39.647Z,59.23
2018-12-07T06:40:16.546Z,59.60
2018-12-07T06:40:53.504Z,59.42
2018-12-07T06:41:30.431Z,59.89
2018-12-07T06:42:07.352Z,58.49
2018-12-07T06:42:44.259Z,58.88
2018-12-07T06:43:21.290Z,58.92
2018-12-07T06:43:59.276Z,58.93
2018-12-07T06:44:37.129Z,58.80
2018-12-07T06:45:14.011Z,58.96
2018-12-07T06:45:50.959Z,58.70
2018-12-07T06:46:27.708Z,59.01
2018-12-07T06:47:04.682Z,58.06
2018-12-07T06:47:41.553Z,59.21
2018-12-07T06:48:18.355Z,59.29
2018-12-07T06:49:13.935Z,59.26
2018-12-07T06:49:50.700Z,59.19
2018-12-07T06:50:27.676Z,59.54
2018-12-07T06:51:04.637Z,59.00
2018-12-07T06:51:55.523Z,59.17
2018-12-07T06:52:32.433Z,58.50
2018-12-07T06:53:09.272Z,58.39
2018-12-07T06:53:46.595Z,58.17
2018-12-07T06:54:23.479Z,57.87
2018-12-07T06:55:00.373Z,58.15
2018-12-07T06:55:37.203Z,57.88
2018-12-07T06:56:14.089Z,58.41
2018-12-07T06:56:51.657Z,58.08
2018-12-07T06:57:28.523Z,57.27
2018-12-07T06:58:06.524Z,57.46
2018-12-07T06:58:44.955Z,57.54
2018-12-07T06:59:21.962Z,57.70
2018-12-07T06:59:58.792Z,58.12
2018-12-07T07:00:36.549Z,58.14
2018-12-07T07:01:13.404Z,58.75
2018-12-07T07:01:50.220Z,58.47
2018-12-07T07:02:28.161Z,57.50
2018-12-07T07:03:06.180Z,57.35
2018-12-07T07:03:43.157Z,57.57
2018-12-07T07:04:20.085Z,57.83
2018-12-07T07:04:56.874Z,58.14
2018-12-07T07:05:33.691Z,58.10
2018-12-07T07:06:10.633Z,58.56
2018-12-07T07:06:47.500Z,58.27
2018-12-07T07:07:24.276Z,58.43
2018-12-07T07:08:01.199Z,58.75
2018-12-07T07:08:39.112Z,58.21
2018-12-07T07:09:16.783Z,58.28
2018-12-07T07:09:53.577Z,58.40
2018-12-07T07:10:30.425Z,58.00
2018-12-07T07:11:07.333Z,57.74
2018-12-07T07:11:44.446Z,56.89
2018-12-07T07:12:21.326Z,58.02
2018-12-07T07:12:58.133Z,57.54
2018-12-07T07:13:35.092Z,58.13
2018-12-07T07:14:12.131Z,57.62
2018-12-07T07:14:48.990Z,58.30
2018-12-07T07:15:25.812Z,58.26
2018-12-07T07:16:02.633Z,58.59
2018-12-07T07:16:39.442Z,58.90
2018-12-07T07:17:16.329Z,58.26
2018-12-07T07:17:53.077Z,58.42
2018-12-07T07:18:29.944Z,58.17
2018-12-07T07:19:06.968Z,57.84
2018-12-07T07:19:45.083Z,57.98
2018-12-07T07:20:21.944Z,56.65
2018-12-07T07:20:58.837Z,56.90
2018-12-07T07:21:36.792Z,57.39
2018-12-07T07:22:13.667Z,57.27
2018-12-07T07:22:50.476Z,56.93
2018-12-07T07:23:27.398Z,57.06
2018-12-07T07:24:05.911Z,58.16
2018-12-07T07:24:42.774Z,57.79
2018-12-07T07:25:20.710Z,57.66
2018-12-07T07:25:57.930Z,57.10
2018-12-07T07:26:35.416Z,57.32
2018-12-07T07:27:12.272Z,56.72
2018-12-07T07:27:49.159Z,56.80
2018-12-07T07:28:26.044Z,57.70
2018-12-07T07:29:02.801Z,56.82
2018-12-07T07:29:40.669Z,56.30
2018-12-07T07:30:19.259Z,55.45
2018-12-07T07:30:56.729Z,55.75
2018-12-07T07:31:33.629Z,56.11
2018-12-07T07:32:11.440Z,56.31
2018-12-07T07:32:50.307Z,56.13
2018-12-07T07:33:27.130Z,56.93
2018-12-07T07:34:04.074Z,57.10
2018-12-07T07:34:40.921Z,57.85
2018-12-07T07:35:17.771Z,57.08
2018-12-07T07:35:54.603Z,57.40
2018-12-07T07:36:32.008Z,57.53
2018-12-07T07:37:08.919Z,57.73
2018-12-07T07:37:45.777Z,57.37
2018-12-07T07:38:23.292Z,57.62
2018-12-07T07:39:00.665Z,58.13
2018-12-07T07:39:37.631Z,58.31
2018-12-07T07:40:14.544Z,57.93
2018-12-07T07:40:52.371Z,58.10
2018-12-07T07:41:29.519Z,57.96
2018-12-07T07:42:07.392Z,58.03
2018-12-07T07:42:44.285Z,58.13
2018-12-07T07:43:21.233Z,58.39
2018-12-07T07:43:58.168Z,58.90
2018-12-07T07:44:35.477Z,58.95
2018-12-07T07:45:12.322Z,59.13
2018-12-07T07:45:49.236Z,59.42
2018-12-07T07:46:26.258Z,59.58
2018-12-07T07:47:09.064Z,59.56
2018-12-07T07:47:46.008Z,60.02
2018-12-07T07:48:22.788Z,59.77
2018-12-07T07:49:00.640Z,60.21
2018-12-07T07:49:37.491Z,60.02
2018-12-07T07:50:14.437Z,60.05
2018-12-07T07:50:51.265Z,59.82
2018-12-07T07:51:29.414Z,60.05
2018-12-07T07:52:06.261Z,60.27
2018-12-07T07:52:43.254Z,60.72
2018-12-07T07:53:20.210Z,60.97
2018-12-07T07:53:57.214Z,60.38
2018-12-07T07:54:34.112Z,60.06
2018-12-07T07:55:10.927Z,60.29
2018-12-07T07:55:47.762Z,59.98
2018-12-07T07:56:24.552Z,59.28
2018-12-07T07:57:01.412Z,58.87
2018-12-07T07:57:38.296Z,58.77
2018-12-07T07:58:16.329Z,59.27
2018-12-07T07:58:53.378Z,59.40
2018-12-07T07:59:30.200Z,59.70
2018-12-07T08:00:07.766Z,59.74
2018-12-07T08:00:44.662Z,59.91
2018-12-07T08:01:21.464Z,60.15
2018-12-07T08:01:58.362Z,59.82
2018-12-07T08:02:35.460Z,59.60
2018-12-07T08:03:12.389Z,59.42